Terminal Aerodrome Forecast
Issued by NWS Spokane, WA

Home | Current Version | Previous Version | Text Only | Print | Product List | Glossary On
Versions: 1 2 3 4 5 6 7 8 9 10 11 12 13 14 15 16 17 18 19 20 21 22 23 24 25 26 27
000
FTUS46 KOTX 172221 AAA
TAFLWS
TAF AMD
KLWS 172221Z 1722/1818 31006KT 6SM HZ FEW120 BKN200
      TEMPO 1722/1801 5SM HZ
     FM180300 23005KT P6SM BKN200
     FM180900 24005KT P6SM SCT100 BKN150=

USA.gov is the U.S. government's official web portal to all federal, state and local government web resources and services.